createdAt,value
2024-01-20T00:00:15.783Z,-2.15
2024-01-20T00:02:43.743Z,-1.99
2024-01-20T00:05:12.219Z,-2.08
2024-01-20T00:07:39.888Z,-2.15
2024-01-20T00:10:12.461Z,-2.17
2024-01-20T00:12:44.179Z,-2.27
2024-01-20T00:15:12.844Z,-2.27
2024-01-20T00:17:40.952Z,-2.21
2024-01-20T00:20:10.754Z,-2.19
2024-01-20T00:22:38.748Z,-2.29
2024-01-20T00:25:06.297Z,-2.39
2024-01-20T00:27:33.725Z,-2.47
2024-01-20T00:30:01.628Z,-2.56
2024-01-20T00:32:29.480Z,-2.59
2024-01-20T00:35:06.034Z,-2.63
2024-01-20T00:37:39.929Z,-2.74
2024-01-20T00:40:08.598Z,-2.78
2024-01-20T00:42:35.990Z,-2.84
2024-01-20T00:45:07.236Z,-2.89
2024-01-20T00:47:36.792Z,-3.02
2024-01-20T00:50:06.544Z,-3.10
2024-01-20T00:52:33.611Z,-3.11
2024-01-20T00:55:00.582Z,-3.10
2024-01-20T00:57:27.366Z,-3.19
2024-01-20T00:59:54.212Z,-3.37
2024-01-20T01:02:21.060Z,-3.18
2024-01-20T01:04:48.156Z,-3.29
2024-01-20T01:07:15.047Z,-3.36
2024-01-20T01:09:41.898Z,-3.35
2024-01-20T01:12:09.178Z,-3.42
2024-01-20T01:14:36.016Z,-3.43
2024-01-20T01:17:02.899Z,-3.51
2024-01-20T01:19:29.761Z,-3.48
2024-01-20T01:21:56.609Z,-3.36
2024-01-20T01:24:23.408Z,-3.62
2024-01-20T01:26:50.332Z,-3.50
2024-01-20T01:29:17.429Z,-3.54
2024-01-20T01:31:47.252Z,-3.50
2024-01-20T01:34:14.571Z,-3.54
2024-01-20T01:36:41.771Z,-3.47
2024-01-20T01:39:08.586Z,-3.56
2024-01-20T01:41:36.372Z,-3.42
2024-01-20T01:44:03.944Z,-3.43
2024-01-20T01:46:31.536Z,-3.63
2024-01-20T01:48:58.934Z,-3.68
2024-01-20T01:51:25.816Z,-3.76
2024-01-20T01:53:53.265Z,-3.70
2024-01-20T01:56:21.403Z,-3.83
2024-01-20T01:58:48.552Z,-3.82
2024-01-20T02:01:15.616Z,-4.01
2024-01-20T02:03:45.920Z,-4.13
2024-01-20T02:06:13.294Z,-4.25
2024-01-20T02:08:42.501Z,-4.23
2024-01-20T02:11:09.490Z,-4.23
2024-01-20T02:13:37.233Z,-4.33
2024-01-20T02:16:04.930Z,-4.13
2024-01-20T02:18:32.176Z,-4.05
2024-01-20T02:20:59.510Z,-4.12
2024-01-20T02:23:26.405Z,-4.05
2024-01-20T02:25:53.295Z,-4.19
2024-01-20T02:28:20.199Z,-4.11
2024-01-20T02:30:48.104Z,-4.13
2024-01-20T02:33:15.213Z,-4.21
2024-01-20T02:35:42.167Z,-4.19
2024-01-20T02:38:09.014Z,-4.04
2024-01-20T02:40:35.966Z,-4.11
2024-01-20T02:43:03.119Z,-4.23
2024-01-20T02:45:29.973Z,-4.37
2024-01-20T02:47:57.380Z,-4.32
2024-01-20T02:50:24.328Z,-4.24
2024-01-20T02:52:55.875Z,-4.37
2024-01-20T02:55:22.697Z,-4.35
2024-01-20T02:57:49.522Z,-4.36
2024-01-20T03:00:16.584Z,-4.22
2024-01-20T03:02:43.401Z,-4.19
2024-01-20T03:05:10.562Z,-4.27
2024-01-20T03:07:37.442Z,-4.50
2024-01-20T03:10:07.486Z,-4.52
2024-01-20T03:12:37.484Z,-4.23
2024-01-20T03:15:09.026Z,-4.29
2024-01-20T03:17:36.150Z,-4.22
2024-01-20T03:20:03.197Z,-4.17
2024-01-20T03:22:30.035Z,-4.17
2024-01-20T03:24:56.818Z,-4.24
2024-01-20T03:27:23.678Z,-4.24
2024-01-20T03:29:50.575Z,-4.14
2024-01-20T03:32:17.438Z,-4.12
2024-01-20T03:34:44.243Z,-3.83
2024-01-20T03:37:11.254Z,-3.81
2024-01-20T03:39:38.148Z,-3.79
2024-01-20T03:42:05.456Z,-3.45
2024-01-20T03:44:32.382Z,-3.39
2024-01-20T03:46:59.510Z,-3.47
2024-01-20T03:49:27.280Z,-3.35
2024-01-20T03:51:54.205Z,-3.36
2024-01-20T03:54:21.237Z,-3.28
2024-01-20T03:56:48.132Z,-3.32
2024-01-20T03:59:14.998Z,-3.57
2024-01-20T04:01:41.950Z,-3.59
2024-01-20T04:04:09.241Z,-3.52
2024-01-20T04:06:36.404Z,-3.53
2024-01-20T04:09:05.427Z,-3.56
2024-01-20T04:11:32.217Z,-3.46
2024-01-20T04:13:59.021Z,-3.50
2024-01-20T04:16:25.982Z,-3.47
2024-01-20T04:18:52.877Z,-3.44
2024-01-20T04:21:19.681Z,-3.35
2024-01-20T04:23:46.469Z,-3.17
2024-01-20T04:26:13.492Z,-3.17
2024-01-20T04:28:40.525Z,-3.21
2024-01-20T04:31:07.466Z,-3.13
2024-01-20T04:33:36.411Z,-3.27
2024-01-20T04:36:04.641Z,-3.24
2024-01-20T04:38:31.468Z,-3.18
2024-01-20T04:40:58.309Z,-3.03
2024-01-20T04:43:25.084Z,-3.18
2024-01-20T04:45:51.928Z,-3.37
2024-01-20T04:48:19.019Z,-3.24
2024-01-20T04:50:46.034Z,-3.19
2024-01-20T04:53:12.878Z,-3.21
2024-01-20T04:55:39.897Z,-3.23
2024-01-20T04:58:06.829Z,-3.18
2024-01-20T05:00:35.383Z,-3.08
2024-01-20T05:03:02.762Z,-3.14
2024-01-20T05:05:29.695Z,-3.01
2024-01-20T05:07:56.502Z,-3.24
2024-01-20T05:10:23.395Z,-3.15
2024-01-20T05:12:50.240Z,-3.28
2024-01-20T05:15:17.116Z,-3.32
2024-01-20T05:17:44.504Z,-3.40
2024-01-20T05:20:15.556Z,-3.28
2024-01-20T05:22:45.408Z,-3.20
2024-01-20T05:25:12.990Z,-3.16
2024-01-20T05:27:39.903Z,-3.13
2024-01-20T05:30:07.765Z,-3.23
2024-01-20T05:32:34.911Z,-3.22
2024-01-20T05:35:01.798Z,-3.35
2024-01-20T05:37:28.575Z,-3.21
2024-01-20T05:39:55.359Z,-3.34
2024-01-20T05:42:22.184Z,-3.42
2024-01-20T05:44:48.981Z,-3.42
2024-01-20T05:47:15.825Z,-3.30
2024-01-20T05:49:42.711Z,-3.21
2024-01-20T05:52:09.561Z,-3.36
2024-01-20T05:54:36.390Z,-3.35
2024-01-20T05:57:03.457Z,-3.25
2024-01-20T05:59:30.414Z,-3.35
2024-01-20T06:01:57.344Z,-3.35
2024-01-20T06:04:25.081Z,-3.33
2024-01-20T06:06:52.048Z,-3.30
2024-01-20T06:09:18.948Z,-3.31
2024-01-20T06:11:46.081Z,-3.28
2024-01-20T06:14:12.885Z,-3.21
2024-01-20T06:16:42.721Z,-3.44
2024-01-20T06:19:10.165Z,-3.45
2024-01-20T06:21:37.109Z,-3.28
2024-01-20T06:24:04.303Z,-3.33
2024-01-20T06:26:31.171Z,-3.33
2024-01-20T06:28:58.131Z,-3.44
2024-01-20T06:31:26.351Z,-3.37
2024-01-20T06:33:54.243Z,-3.41
2024-01-20T06:36:28.424Z,-3.41
2024-01-20T06:38:55.419Z,-3.47
2024-01-20T06:41:22.442Z,-3.33
2024-01-20T06:43:53.939Z,-3.41
2024-01-20T06:46:21.214Z,-3.13
2024-01-20T06:48:48.138Z,-3.28
2024-01-20T06:51:17.645Z,-3.40
2024-01-20T06:53:45.136Z,-3.36
2024-01-20T06:56:12.545Z,-3.34
2024-01-20T06:58:39.475Z,-3.35
2024-01-20T07:01:07.129Z,-3.37
2024-01-20T07:03:34.060Z,-3.34
2024-01-20T07:06:02.076Z,-3.44
2024-01-20T07:08:29.162Z,-3.35
2024-01-20T07:10:55.954Z,-3.54
2024-01-20T07:13:22.921Z,-3.32
2024-01-20T07:15:49.774Z,-3.14
2024-01-20T07:18:16.760Z,-3.24
2024-01-20T07:20:45.620Z,-3.09
2024-01-20T07:23:12.771Z,-3.46
2024-01-20T07:25:41.031Z,-3.38
2024-01-20T07:28:10.307Z,-3.35
2024-01-20T07:30:37.150Z,-3.37
2024-01-20T07:33:04.325Z,-3.31
2024-01-20T07:35:31.360Z,-3.05
2024-01-20T07:37:58.321Z,-3.13
2024-01-20T07:40:25.260Z,-3.21
2024-01-20T07:42:52.172Z,-3.15
2024-01-20T07:45:19.641Z,-3.22
2024-01-20T07:47:48.000Z,-3.09
2024-01-20T07:50:14.916Z,-3.09
2024-01-20T07:52:41.800Z,-3.27
2024-01-20T07:55:09.397Z,-3.29
2024-01-20T07:57:36.239Z,-3.32
2024-01-20T08:00:03.782Z,-3.28
2024-01-20T08:02:30.759Z,-3.24
2024-01-20T08:04:57.549Z,-3.22
2024-01-20T08:07:24.671Z,-3.34
2024-01-20T08:09:51.538Z,-3.28
2024-01-20T08:12:18.361Z,-3.26
2024-01-20T08:14:45.223Z,-3.11
2024-01-20T08:17:11.995Z,-2.99
2024-01-20T08:19:38.959Z,-3.09
2024-01-20T08:22:08.164Z,-2.96
2024-01-20T08:24:35.121Z,-3.07
2024-01-20T08:27:02.011Z,-3.08
2024-01-20T08:29:28.887Z,-3.13
2024-01-20T08:31:56.184Z,-3.23
2024-01-20T08:34:23.104Z,-2.98
2024-01-20T08:36:49.997Z,-2.93
2024-01-20T08:39:18.768Z,-2.89
2024-01-20T08:41:47.039Z,-2.81
2024-01-20T08:44:15.258Z,-2.87
2024-01-20T08:46:42.388Z,-2.93
2024-01-20T08:49:09.350Z,-2.77
2024-01-20T08:51:36.211Z,-2.78
2024-01-20T08:54:03.978Z,-2.48
2024-01-20T08:56:32.060Z,-2.70
2024-01-20T08:58:59.778Z,-2.55
2024-01-20T09:01:26.947Z,-2.83
2024-01-20T09:03:53.854Z,-2.54
2024-01-20T09:06:20.839Z,-2.52
2024-01-20T09:08:47.764Z,-2.42
2024-01-20T09:11:14.641Z,-2.53
2024-01-20T09:13:41.962Z,-2.60
2024-01-20T09:16:10.845Z,-2.59
2024-01-20T09:18:37.910Z,-2.51
2024-01-20T09:21:05.443Z,-2.36
2024-01-20T09:23:32.606Z,-2.49
2024-01-20T09:26:00.482Z,-2.51
2024-01-20T09:28:29.641Z,-2.28
2024-01-20T09:30:56.504Z,-2.43
2024-01-20T09:33:23.393Z,-2.24
2024-01-20T09:35:50.281Z,-2.35
2024-01-20T09:38:17.077Z,-2.93
2024-01-20T09:40:43.928Z,-2.63
2024-01-20T09:43:11.593Z,-2.52
2024-01-20T09:45:40.356Z,-2.16
2024-01-20T09:48:08.246Z,-2.34
2024-01-20T09:50:35.535Z,-2.42
2024-01-20T09:53:15.105Z,-2.55
2024-01-20T09:55:46.845Z,-2.45
2024-01-20T09:58:15.435Z,-2.43
2024-01-20T10:00:43.227Z,-2.46
2024-01-20T10:03:12.190Z,-2.58
2024-01-20T10:05:39.918Z,-2.29
2024-01-20T10:08:07.532Z,-2.10
2024-01-20T10:10:34.628Z,-2.25
2024-01-20T10:13:04.566Z,-2.11
2024-01-20T10:15:35.521Z,-2.36
2024-01-20T10:18:10.320Z,-2.30
2024-01-20T10:20:38.096Z,-2.21
2024-01-20T10:23:07.602Z,-2.18
2024-01-20T10:25:34.856Z,-2.36
2024-01-20T10:28:01.891Z,-2.04
2024-01-20T10:30:30.674Z,-1.92
2024-01-20T10:33:08.891Z,-2.04
2024-01-20T10:35:37.913Z,-2.21
2024-01-20T10:38:10.039Z,-2.28
2024-01-20T10:40:41.577Z,-1.99
2024-01-20T10:43:17.398Z,-2.04
2024-01-20T10:46:01.723Z,-1.97
2024-01-20T10:48:35.391Z,-1.47
2024-01-20T10:51:08.798Z,-1.74
2024-01-20T10:53:37.003Z,-1.44
2024-01-20T10:56:05.793Z,-1.97
2024-01-20T10:58:36.947Z,-1.65
2024-01-20T11:01:07.004Z,-1.99
2024-01-20T11:03:34.397Z,-2.15
2024-01-20T11:06:01.557Z,-2.17
2024-01-20T11:08:28.654Z,-1.94
2024-01-20T11:10:56.014Z,-2.07
2024-01-20T11:13:27.648Z,-1.99
2024-01-20T11:15:56.892Z,-2.33
2024-01-20T11:18:25.061Z,-2.07
2024-01-20T11:20:59.324Z,-1.92
2024-01-20T11:23:26.916Z,-2.12
2024-01-20T11:25:54.912Z,-1.63
2024-01-20T11:28:48.923Z,-1.73
2024-01-20T11:31:20.434Z,-2.25
2024-01-20T11:33:48.331Z,-1.91
2024-01-20T11:36:17.093Z,-1.93
2024-01-20T11:38:45.104Z,-2.03
2024-01-20T11:41:12.188Z,-2.31
2024-01-20T11:43:46.122Z,-1.94
2024-01-20T11:46:13.566Z,-2.09
2024-01-20T11:48:40.610Z,-2.12
2024-01-20T11:51:07.890Z,-2.28
2024-01-20T11:53:35.411Z,-2.06
2024-01-20T11:56:04.550Z,-1.66
2024-01-20T11:58:34.479Z,-1.57
2024-01-20T12:01:03.185Z,-1.71
2024-01-20T12:03:30.558Z,-1.58
2024-01-20T12:05:58.102Z,-1.52
2024-01-20T12:08:25.396Z,-1.63
2024-01-20T12:10:52.514Z,-1.41
2024-01-20T12:13:19.777Z,-1.87
2024-01-20T12:15:48.282Z,-1.14
2024-01-20T12:18:18.177Z,-1.23
2024-01-20T12:20:46.288Z,-1.62
2024-01-20T12:23:19.572Z,-1.40
2024-01-20T12:25:46.611Z,-1.68
2024-01-20T12:28:13.381Z,-1.79
2024-01-20T12:30:40.447Z,-1.51
2024-01-20T12:33:07.457Z,-0.90
2024-01-20T12:35:35.037Z,-1.04
2024-01-20T12:38:01.868Z,-1.05
2024-01-20T12:40:30.888Z,-0.51
2024-01-20T12:42:57.982Z,0.06
2024-01-20T12:45:25.079Z,-0.50
2024-01-20T12:47:52.198Z,0.33
2024-01-20T12:50:19.394Z,1.93
2024-01-20T12:52:46.726Z,1.88
2024-01-20T12:55:13.662Z,1.57
2024-01-20T12:57:40.876Z,0.47
2024-01-20T13:00:11.707Z,1.69
2024-01-20T13:02:38.781Z,0.20
2024-01-20T13:05:06.579Z,1.51
2024-01-20T13:07:33.483Z,0.98
2024-01-20T13:10:00.409Z,1.25
2024-01-20T13:12:27.423Z,1.51
2024-01-20T13:14:54.419Z,1.55
2024-01-20T13:17:21.318Z,1.34
2024-01-20T13:19:48.196Z,1.28
2024-01-20T13:22:15.135Z,1.63
2024-01-20T13:24:42.124Z,1.46
2024-01-20T13:27:09.099Z,1.99
2024-01-20T13:29:36.019Z,2.87
2024-01-20T13:32:03.008Z,1.91
2024-01-20T13:34:29.888Z,2.99
2024-01-20T13:36:57.076Z,2.40
2024-01-20T13:39:24.031Z,2.24
2024-01-20T13:41:52.006Z,2.86
2024-01-20T13:44:19.099Z,2.89
2024-01-20T13:46:46.032Z,3.52
2024-01-20T13:49:14.125Z,2.97
2024-01-20T13:51:41.199Z,2.36
2024-01-20T13:54:08.348Z,2.59
2024-01-20T13:56:35.216Z,2.61
2024-01-20T13:59:04.022Z,2.57
2024-01-20T14:01:31.081Z,2.78
2024-01-20T14:03:58.947Z,2.61
2024-01-20T14:06:26.164Z,1.52
2024-01-20T14:08:53.592Z,3.29
2024-01-20T14:11:20.580Z,4.13
2024-01-20T14:13:47.417Z,2.62
2024-01-20T14:16:14.373Z,2.48
2024-01-20T14:18:41.317Z,3.08
2024-01-20T14:21:08.301Z,3.17
2024-01-20T14:23:35.150Z,4.08
2024-01-20T14:26:02.270Z,2.58
2024-01-20T14:28:29.251Z,1.90
2024-01-20T14:30:56.195Z,2.51
2024-01-20T14:33:23.370Z,3.08
2024-01-20T14:35:50.405Z,3.52
2024-01-20T14:38:17.356Z,1.77
2024-01-20T14:40:44.582Z,1.46
2024-01-20T14:43:11.556Z,0.45
2024-01-20T14:45:38.374Z,-0.72
2024-01-20T14:48:05.888Z,-1.05
2024-01-20T14:50:33.062Z,-1.76
2024-01-20T14:53:00.010Z,-1.36
2024-01-20T14:55:29.317Z,-1.38
2024-01-20T14:57:57.719Z,-1.82
2024-01-20T15:00:24.662Z,-1.75
2024-01-20T15:02:52.160Z,-1.82
2024-01-20T15:05:19.906Z,-2.09
2024-01-20T15:07:46.709Z,-2.06
2024-01-20T15:10:13.682Z,-2.07
2024-01-20T15:12:40.685Z,-2.29
2024-01-20T15:15:07.965Z,-2.34
2024-01-20T15:17:34.910Z,-2.69
2024-01-20T15:20:01.982Z,-2.94
2024-01-20T15:22:28.798Z,-3.04
2024-01-20T15:24:55.714Z,-3.03
2024-01-20T15:27:22.701Z,-3.09
2024-01-20T15:29:49.697Z,-3.22
2024-01-20T15:32:16.577Z,-3.21
2024-01-20T15:34:43.517Z,-3.52
2024-01-20T15:37:10.708Z,-3.49
2024-01-20T15:39:37.657Z,-3.64
2024-01-20T15:42:04.777Z,-3.58
2024-01-20T15:44:31.650Z,-3.58
2024-01-20T15:46:59.015Z,-3.68
2024-01-20T15:49:25.961Z,-3.70
2024-01-20T15:51:52.992Z,-3.79
2024-01-20T15:54:19.872Z,-3.94
2024-01-20T15:56:46.712Z,-4.04
2024-01-20T15:59:13.628Z,-3.88
2024-01-20T16:01:40.582Z,-3.93
2024-01-20T16:04:07.684Z,-3.91
2024-01-20T16:06:34.794Z,-4.06
2024-01-20T16:09:01.917Z,-4.10
2024-01-20T16:11:29.307Z,-4.16
2024-01-20T16:13:56.147Z,-4.16
2024-01-20T16:16:23.733Z,-4.24
2024-01-20T16:18:50.782Z,-4.26
2024-01-20T16:21:24.970Z,-4.46
2024-01-20T16:23:52.789Z,-4.41
2024-01-20T16:26:22.574Z,-4.44
2024-01-20T16:28:50.483Z,-4.47
2024-01-20T16:31:17.886Z,-4.50
2024-01-20T16:33:46.398Z,-4.49
2024-01-20T16:36:25.481Z,-4.60
2024-01-20T16:38:52.648Z,-4.55
2024-01-20T16:41:19.834Z,-4.62
2024-01-20T16:43:46.616Z,-4.81
2024-01-20T16:46:13.481Z,-4.86
2024-01-20T16:48:40.734Z,-5.00
2024-01-20T16:51:15.056Z,-4.97
2024-01-20T16:53:49.152Z,-4.96
2024-01-20T16:56:16.001Z,-5.03
2024-01-20T16:58:43.067Z,-5.12
2024-01-20T17:01:09.930Z,-5.15
2024-01-20T17:03:36.828Z,-5.28
2024-01-20T17:06:04.002Z,-5.23
2024-01-20T17:08:30.829Z,-5.29
2024-01-20T17:10:57.615Z,-5.41
2024-01-20T17:13:24.514Z,-5.54
2024-01-20T17:15:52.379Z,-5.62
2024-01-20T17:18:19.317Z,-5.70
2024-01-20T17:20:46.321Z,-5.70
2024-01-20T17:23:13.311Z,-5.66
2024-01-20T17:25:40.069Z,-5.63
2024-01-20T17:28:06.909Z,-5.65
2024-01-20T17:30:33.779Z,-5.68
2024-01-20T17:33:00.807Z,-5.70
2024-01-20T17:35:27.781Z,-5.76
2024-01-20T17:37:57.078Z,-5.76
2024-01-20T17:40:23.971Z,-5.72
2024-01-20T17:42:51.218Z,-5.86
2024-01-20T17:45:18.123Z,-5.85
2024-01-20T17:47:47.330Z,-5.87
2024-01-20T17:50:14.866Z,-5.87
2024-01-20T17:52:41.877Z,-5.90
2024-01-20T17:55:09.129Z,-5.91
2024-01-20T17:57:37.010Z,-5.99
2024-01-20T18:00:05.228Z,-6.09
2024-01-20T18:02:32.419Z,-6.12
2024-01-20T18:04:59.470Z,-6.17
2024-01-20T18:07:26.414Z,-6.22
2024-01-20T18:09:53.230Z,-6.31
2024-01-20T18:12:20.119Z,-6.19
2024-01-20T18:14:46.950Z,-6.06
2024-01-20T18:17:16.720Z,-6.19
2024-01-20T18:19:43.717Z,-6.02
2024-01-20T18:22:10.560Z,-6.06
2024-01-20T18:24:38.930Z,-6.19
2024-01-20T18:27:06.508Z,-6.07
2024-01-20T18:29:33.446Z,-6.13
2024-01-20T18:32:00.488Z,-6.12
2024-01-20T18:34:27.343Z,-6.10
2024-01-20T18:36:56.267Z,-6.23
2024-01-20T18:39:23.085Z,-6.32
2024-01-20T18:41:50.029Z,-6.29
2024-01-20T18:44:16.845Z,-6.40
2024-01-20T18:46:43.708Z,-6.58
2024-01-20T18:49:11.046Z,-6.59
2024-01-20T18:51:38.139Z,-6.61
2024-01-20T18:54:05.393Z,-6.63
2024-01-20T18:56:32.591Z,-6.65
2024-01-20T18:58:59.511Z,-6.63
2024-01-20T19:01:29.397Z,-6.52
2024-01-20T19:03:56.576Z,-6.58
2024-01-20T19:06:26.168Z,-6.61
2024-01-20T19:08:53.094Z,-6.61
2024-01-20T19:11:20.400Z,-6.68
2024-01-20T19:13:48.735Z,-6.63
2024-01-20T19:16:15.739Z,-6.65
2024-01-20T19:18:42.643Z,-6.69
2024-01-20T19:21:10.693Z,-6.63
2024-01-20T19:23:42.425Z,-6.69
2024-01-20T19:26:12.260Z,-6.75
2024-01-20T19:28:40.208Z,-6.67
2024-01-20T19:31:07.851Z,-6.79
2024-01-20T19:33:34.924Z,-6.76
2024-01-20T19:36:01.933Z,-6.92
2024-01-20T19:38:29.063Z,-6.95
2024-01-20T19:40:55.978Z,-6.91
2024-01-20T19:43:22.936Z,-6.94
2024-01-20T19:45:49.783Z,-6.95
2024-01-20T19:48:17.896Z,-6.99
2024-01-20T19:50:45.064Z,-6.91
2024-01-20T19:53:12.072Z,-7.04
2024-01-20T19:55:38.966Z,-7.15
2024-01-20T19:58:05.890Z,-7.11
2024-01-20T20:00:32.773Z,-7.23
2024-01-20T20:03:00.798Z,-7.25
2024-01-20T20:05:27.881Z,-7.34
2024-01-20T20:07:54.817Z,-7.45
2024-01-20T20:10:21.668Z,-7.38
2024-01-20T20:12:49.038Z,-7.31
2024-01-20T20:15:16.021Z,-7.28
2024-01-20T20:17:44.677Z,-7.28
2024-01-20T20:20:12.464Z,-7.44
2024-01-20T20:22:39.773Z,-7.58
2024-01-20T20:25:06.839Z,-7.62
2024-01-20T20:27:33.663Z,-7.63
2024-01-20T20:30:00.580Z,-7.49
2024-01-20T20:32:27.990Z,-7.64
2024-01-20T20:34:55.056Z,-7.65
2024-01-20T20:37:22.752Z,-7.67
2024-01-20T20:39:50.141Z,-7.79
2024-01-20T20:42:17.873Z,-7.71
2024-01-20T20:44:44.950Z,-7.77
2024-01-20T20:47:11.988Z,-7.79
2024-01-20T20:49:39.125Z,-7.87
2024-01-20T20:52:06.128Z,-7.71
2024-01-20T20:54:33.060Z,-7.87
2024-01-20T20:57:00.289Z,-7.90
2024-01-20T20:59:27.084Z,-7.81
2024-01-20T21:01:54.031Z,-7.78
2024-01-20T21:04:20.949Z,-7.68
2024-01-20T21:06:47.851Z,-7.93
2024-01-20T21:09:17.733Z,-7.94
2024-01-20T21:11:44.674Z,-8.08
2024-01-20T21:14:11.524Z,-8.20
2024-01-20T21:16:38.361Z,-8.12
2024-01-20T21:19:05.254Z,-8.10
2024-01-20T21:21:32.148Z,-8.16
2024-01-20T21:23:59.055Z,-8.20
2024-01-20T21:26:25.920Z,-8.07
2024-01-20T21:28:52.810Z,-8.20
2024-01-20T21:31:19.713Z,-8.10
2024-01-20T21:33:47.176Z,-8.08
2024-01-20T21:36:14.314Z,-8.18
2024-01-20T21:38:41.987Z,-8.20
2024-01-20T21:41:08.811Z,-8.22
2024-01-20T21:43:35.607Z,-8.35
2024-01-20T21:46:02.556Z,-8.42
2024-01-20T21:48:29.627Z,-8.48
2024-01-20T21:50:58.108Z,-8.58
2024-01-20T21:53:25.286Z,-8.52
2024-01-20T21:55:52.173Z,-8.60
2024-01-20T21:58:19.209Z,-8.48
2024-01-20T22:00:46.821Z,-8.58
2024-01-20T22:03:13.896Z,-8.68
2024-01-20T22:05:41.012Z,-8.81
2024-01-20T22:08:07.991Z,-8.65
2024-01-20T22:10:34.936Z,-8.65
2024-01-20T22:13:01.981Z,-8.73
2024-01-20T22:15:29.541Z,-8.72
2024-01-20T22:17:56.537Z,-8.81
2024-01-20T22:20:24.352Z,-8.84
2024-01-20T22:22:51.523Z,-8.82
2024-01-20T22:25:18.886Z,-8.72
2024-01-20T22:27:46.042Z,-8.76
2024-01-20T22:30:13.342Z,-8.73
2024-01-20T22:32:40.780Z,-8.77
2024-01-20T22:35:08.103Z,-8.88
2024-01-20T22:37:35.050Z,-8.77
2024-01-20T22:40:03.762Z,-8.77
2024-01-20T22:42:31.423Z,-8.83
2024-01-20T22:44:58.453Z,-9.01
2024-01-20T22:47:25.464Z,-8.93
2024-01-20T22:49:52.451Z,-8.89
2024-01-20T22:52:19.459Z,-8.80
2024-01-20T22:54:46.525Z,-8.81
2024-01-20T22:57:13.651Z,-8.82
2024-01-20T22:59:41.657Z,-8.75
2024-01-20T23:02:08.553Z,-8.96
2024-01-20T23:04:35.535Z,-8.87
2024-01-20T23:07:02.567Z,-8.83
2024-01-20T23:09:29.499Z,-9.01
2024-01-20T23:11:56.769Z,-8.87
2024-01-20T23:14:23.667Z,-8.76
2024-01-20T23:16:51.543Z,-8.58
2024-01-20T23:19:18.470Z,-8.66
2024-01-20T23:21:45.399Z,-8.76
2024-01-20T23:24:12.556Z,-8.69
2024-01-20T23:26:43.591Z,-8.55
2024-01-20T23:29:10.865Z,-8.70
2024-01-20T23:31:38.475Z,-8.60
2024-01-20T23:34:05.759Z,-8.57
2024-01-20T23:36:32.884Z,-8.62
2024-01-20T23:38:59.693Z,-8.78
2024-01-20T23:41:26.588Z,-8.70
2024-01-20T23:43:53.443Z,-8.53
2024-01-20T23:46:20.268Z,-8.61
2024-01-20T23:48:47.311Z,-8.65
2024-01-20T23:51:15.225Z,-8.77
2024-01-20T23:53:42.829Z,-8.68
2024-01-20T23:56:10.563Z,-8.83
2024-01-20T23:58:37.465Z,-8.83
